createdAt,value
2022-10-13T00:00:47.505Z,10.18
2022-10-13T00:03:15.332Z,9.63
2022-10-13T00:05:44.434Z,10.40
2022-10-13T00:08:14.187Z,10.00
2022-10-13T00:10:42.042Z,10.82
2022-10-13T00:13:09.290Z,10.43
2022-10-13T00:15:38.724Z,10.40
2022-10-13T00:18:06.738Z,10.60
2022-10-13T00:20:33.818Z,10.80
2022-10-13T00:23:00.594Z,10.02
2022-10-13T00:25:29.253Z,10.63
2022-10-13T00:27:55.962Z,9.70
2022-10-13T00:30:22.678Z,9.57
2022-10-13T00:32:49.975Z,10.18
2022-10-13T00:35:16.933Z,10.95
2022-10-13T00:37:43.637Z,9.50
2022-10-13T00:40:12.050Z,10.73
2022-10-13T00:42:42.230Z,10.60
2022-10-13T00:45:21.249Z,10.65
2022-10-13T00:47:51.474Z,10.63
2022-10-13T00:50:23.062Z,11.30
2022-10-13T00:52:52.650Z,11.45
2022-10-13T00:57:51.382Z,7.97
2022-10-13T01:00:18.911Z,9.35
2022-10-13T01:02:45.609Z,10.93
2022-10-13T01:05:12.320Z,10.77
2022-10-13T01:07:39.629Z,11.52
2022-10-13T01:10:07.062Z,10.40
2022-10-13T01:12:43.360Z,9.77
2022-10-13T01:15:19.143Z,12.05
2022-10-13T01:17:56.189Z,9.70
2022-10-13T01:20:42.548Z,9.60
2022-10-13T01:23:30.558Z,10.95
2022-10-13T01:26:17.466Z,8.75
2022-10-13T01:29:17.539Z,11.90
2022-10-13T01:31:50.679Z,9.55
2022-10-13T01:34:23.716Z,10.32
2022-10-13T01:36:57.708Z,10.95
2022-10-13T01:39:31.331Z,10.07
2022-10-13T01:42:06.465Z,11.27
2022-10-13T01:44:37.637Z,10.50
2022-10-13T01:47:08.576Z,11.00
2022-10-13T01:49:36.684Z,11.07
2022-10-13T01:52:08.611Z,12.17
2022-10-13T01:54:35.960Z,10.90
2022-10-13T01:57:02.821Z,11.57
2022-10-13T01:59:33.214Z,10.85
2022-10-13T02:02:08.674Z,11.18
2022-10-13T02:04:50.306Z,11.95
2022-10-13T02:07:22.989Z,11.02
2022-10-13T02:09:57.463Z,11.38
2022-10-13T02:12:29.852Z,10.85
2022-10-13T02:14:59.339Z,9.43
2022-10-13T02:17:27.761Z,11.38
2022-10-13T02:19:57.038Z,9.98
2022-10-13T02:22:28.911Z,11.18
2022-10-13T02:24:56.321Z,10.82
2022-10-13T02:27:23.483Z,9.68
2022-10-13T02:29:52.050Z,10.00
2022-10-13T02:32:20.409Z,9.98
2022-10-13T02:34:47.515Z,11.23
2022-10-13T02:37:15.589Z,10.60
2022-10-13T02:39:42.946Z,10.55
2022-10-13T02:42:09.772Z,10.52
2022-10-13T02:44:36.642Z,11.05
2022-10-13T02:47:03.962Z,10.55
2022-10-13T02:49:30.650Z,11.40
2022-10-13T02:51:57.469Z,11.80
2022-10-13T02:54:26.170Z,9.98
2022-10-13T02:56:52.881Z,11.33
2022-10-13T02:59:19.592Z,12.00
2022-10-13T03:01:46.933Z,11.55
2022-10-13T03:04:13.635Z,10.75
2022-10-13T03:06:40.344Z,10.70
2022-10-13T03:09:07.708Z,10.57
2022-10-13T03:11:35.775Z,9.90
2022-10-13T03:14:02.453Z,11.90
2022-10-13T03:16:29.787Z,10.82
2022-10-13T03:18:56.480Z,9.52
2022-10-13T03:21:23.180Z,11.15
2022-10-13T03:23:50.541Z,12.23
2022-10-13T03:26:17.396Z,10.82
2022-10-13T03:28:48.775Z,10.48
2022-10-13T03:31:16.960Z,10.02
2022-10-13T03:33:44.030Z,10.48
2022-10-13T03:36:12.114Z,10.30
2022-10-13T03:38:40.007Z,11.55
2022-10-13T03:41:07.667Z,12.18
2022-10-13T03:43:35.059Z,11.48
2022-10-13T03:46:05.529Z,9.25
2022-10-13T03:48:32.998Z,11.00
2022-10-13T03:50:59.773Z,10.40
2022-10-13T03:53:27.101Z,10.07
2022-10-13T03:55:55.911Z,9.95
2022-10-13T03:58:24.209Z,10.00
2022-10-13T04:00:51.958Z,11.32
2022-10-13T04:03:20.159Z,10.82
2022-10-13T04:05:47.495Z,10.48
2022-10-13T04:08:15.122Z,10.15
2022-10-13T04:10:41.869Z,11.02
2022-10-13T04:13:08.709Z,10.80
2022-10-13T04:15:37.224Z,10.05
2022-10-13T04:18:04.118Z,8.15
2022-10-13T04:20:35.151Z,8.20
2022-10-13T04:23:02.483Z,8.57
2022-10-13T04:25:29.214Z,10.55
2022-10-13T04:27:56.526Z,9.70
2022-10-13T04:30:23.206Z,9.65
2022-10-13T04:32:49.897Z,9.45
2022-10-13T04:35:17.363Z,9.35
2022-10-13T04:37:45.415Z,10.60
2022-10-13T04:40:12.481Z,10.93
2022-10-13T04:42:39.773Z,8.00
2022-10-13T04:45:08.021Z,9.65
2022-10-13T04:47:37.140Z,10.18
2022-10-13T04:50:05.412Z,9.20
2022-10-13T04:52:33.378Z,8.48
2022-10-13T04:55:01.858Z,9.05
2022-10-13T04:57:29.189Z,9.77
2022-10-13T04:59:55.879Z,8.90
2022-10-13T05:02:22.789Z,9.88
2022-10-13T05:04:50.150Z,7.95
2022-10-13T05:07:18.452Z,7.70
2022-10-13T05:09:45.516Z,9.40
2022-10-13T05:12:15.026Z,10.38
2022-10-13T05:14:41.747Z,9.88
2022-10-13T05:17:08.452Z,9.68
2022-10-13T05:19:35.768Z,8.48
2022-10-13T05:22:02.556Z,7.82
2022-10-13T05:24:29.482Z,10.65
2022-10-13T05:26:56.823Z,9.77
2022-10-13T05:29:24.960Z,10.57
2022-10-13T05:31:51.679Z,7.13
2022-10-13T05:34:18.999Z,8.40
2022-10-13T05:36:45.729Z,9.10
2022-10-13T05:39:12.452Z,10.15
2022-10-13T05:41:39.766Z,9.48
2022-10-13T05:44:08.536Z,9.00
2022-10-13T05:46:36.759Z,9.55
2022-10-13T05:49:04.585Z,9.57
2022-10-13T05:51:35.180Z,10.35
2022-10-13T05:54:05.875Z,9.35
2022-10-13T05:56:37.604Z,8.77
2022-10-13T05:59:08.041Z,8.35
2022-10-13T06:01:39.677Z,10.55
2022-10-13T06:04:09.406Z,9.88
2022-10-13T06:06:36.762Z,8.90
2022-10-13T06:09:03.603Z,10.98
2022-10-13T06:11:30.293Z,8.98
2022-10-13T06:13:57.621Z,11.65
2022-10-13T06:16:24.316Z,10.43
2022-10-13T06:18:52.390Z,9.75
2022-10-13T06:21:19.743Z,10.57
2022-10-13T06:23:46.456Z,10.88
2022-10-13T06:26:13.206Z,7.88
2022-10-13T06:28:40.557Z,10.05
2022-10-13T06:31:07.302Z,10.73
2022-10-13T06:33:34.571Z,10.35
2022-10-13T06:36:05.182Z,10.00
2022-10-13T06:38:32.718Z,9.00
2022-10-13T06:41:00.330Z,10.55
2022-10-13T06:43:35.702Z,11.23
2022-10-13T06:46:06.768Z,9.18
2022-10-13T06:48:34.131Z,10.65
2022-10-13T06:51:02.739Z,11.13
2022-10-13T06:53:29.483Z,10.02
2022-10-13T06:55:57.726Z,9.77
2022-10-13T06:58:24.517Z,7.70
2022-10-13T07:00:51.465Z,11.35
2022-10-13T07:03:18.831Z,11.90
2022-10-13T07:05:45.627Z,12.23
2022-10-13T07:08:13.900Z,8.77
2022-10-13T07:10:41.345Z,11.52
2022-10-13T07:13:08.372Z,12.02
2022-10-13T07:15:37.439Z,12.48
2022-10-13T07:18:04.898Z,11.57
2022-10-13T07:20:31.902Z,12.52
2022-10-13T07:22:58.606Z,11.43
2022-10-13T07:25:27.468Z,11.25
2022-10-13T07:27:54.269Z,11.98
2022-10-13T07:30:21.193Z,10.68
2022-10-13T07:32:48.727Z,10.90
2022-10-13T07:35:15.506Z,10.93
2022-10-13T07:37:42.208Z,12.73
2022-10-13T07:40:10.715Z,12.48
2022-10-13T07:42:38.757Z,12.00
2022-10-13T07:45:06.714Z,10.70
2022-10-13T07:47:34.043Z,10.20
2022-10-13T07:50:00.749Z,11.63
2022-10-13T07:52:27.538Z,11.60
2022-10-13T07:54:55.707Z,11.85
2022-10-13T07:57:25.615Z,11.13
2022-10-13T07:59:53.710Z,13.57
2022-10-13T08:02:21.296Z,11.82
2022-10-13T08:04:48.558Z,11.95
2022-10-13T08:07:15.277Z,12.25
2022-10-13T08:09:42.789Z,11.68
2022-10-13T08:12:09.569Z,10.93
2022-10-13T08:14:36.425Z,11.35
2022-10-13T08:17:05.179Z,10.43
2022-10-13T08:19:31.967Z,11.87
2022-10-13T08:21:59.909Z,11.18
2022-10-13T08:26:54.765Z,11.50
2022-10-13T08:29:23.761Z,10.68
2022-10-13T08:31:52.210Z,10.40
2022-10-13T08:34:21.159Z,12.70
2022-10-13T08:36:47.916Z,11.35
2022-10-13T08:39:15.227Z,11.43
2022-10-13T08:41:43.921Z,11.93
2022-10-13T08:47:13.050Z,11.00
2022-10-13T08:49:43.092Z,10.80
2022-10-13T08:52:14.013Z,11.65
2022-10-13T08:54:40.742Z,11.43
2022-10-13T08:57:09.335Z,12.10
2022-10-13T08:59:36.848Z,9.20
2022-10-13T09:02:11.886Z,11.02
2022-10-13T09:04:43.791Z,11.65
2022-10-13T09:07:14.770Z,10.55
2022-10-13T09:09:42.703Z,10.70
2022-10-13T09:12:11.517Z,11.15
2022-10-13T09:14:40.350Z,10.82
2022-10-13T09:17:18.076Z,10.10
2022-10-13T09:19:58.365Z,11.15
2022-10-13T09:22:28.163Z,10.60
2022-10-13T09:25:19.385Z,10.57
2022-10-13T09:27:49.925Z,10.27
2022-10-13T09:30:32.826Z,9.65
2022-10-13T09:33:15.447Z,10.85
2022-10-13T09:35:45.445Z,9.77
2022-10-13T09:38:15.864Z,9.55
2022-10-13T09:43:27.928Z,9.73
2022-10-13T09:45:55.117Z,9.93
2022-10-13T09:48:25.803Z,8.57
2022-10-13T09:50:55.906Z,10.15
2022-10-13T09:53:28.070Z,10.32
2022-10-13T09:56:09.935Z,9.70
2022-10-13T09:58:42.223Z,8.88
2022-10-13T10:01:16.682Z,9.90
2022-10-13T10:03:44.518Z,9.88
2022-10-13T10:06:16.057Z,10.02
2022-10-13T10:09:04.705Z,9.43
2022-10-13T10:11:38.541Z,9.60
2022-10-13T10:14:15.673Z,8.07
2022-10-13T10:16:47.196Z,7.82
2022-10-13T10:19:20.093Z,8.60
2022-10-13T10:21:54.244Z,8.70
2022-10-13T10:24:25.262Z,9.20
2022-10-13T10:26:55.794Z,10.10
2022-10-13T10:29:33.465Z,9.27
2022-10-13T10:32:15.490Z,8.70
2022-10-13T10:34:48.890Z,10.05
2022-10-13T10:37:28.376Z,8.27
2022-10-13T10:42:51.819Z,10.07
2022-10-13T10:45:24.994Z,8.00
2022-10-13T10:47:56.486Z,9.93
2022-10-13T10:50:23.945Z,10.60
2022-10-13T10:52:58.626Z,10.63
2022-10-13T10:55:32.224Z,11.13
2022-10-13T10:58:10.775Z,11.52
2022-10-13T11:00:45.808Z,11.77
2022-10-13T11:03:23.493Z,12.25
2022-10-13T11:06:02.738Z,12.50
2022-10-13T11:08:39.908Z,11.77
2022-10-13T11:11:44.022Z,12.90
2022-10-13T11:14:27.828Z,10.70
2022-10-13T11:17:10.679Z,14.10
2022-10-13T11:19:38.466Z,11.60
2022-10-13T11:22:25.117Z,10.77
2022-10-13T11:25:37.838Z,13.77
2022-10-13T11:28:38.806Z,11.30
2022-10-13T11:31:24.319Z,13.77
2022-10-13T11:33:55.479Z,13.73
2022-10-13T11:36:44.883Z,11.02
2022-10-13T11:39:37.352Z,15.77
2022-10-13T11:42:21.267Z,13.20
2022-10-13T11:44:54.881Z,10.65
2022-10-13T11:47:43.311Z,13.57
2022-10-13T11:50:20.358Z,14.48
2022-10-13T11:53:05.142Z,13.48
2022-10-13T11:55:42.603Z,14.35
2022-10-13T11:58:15.662Z,14.85
2022-10-13T12:00:54.648Z,13.30
2022-10-13T12:03:23.349Z,13.45
2022-10-13T12:05:51.274Z,13.55
2022-10-13T12:08:19.711Z,15.07
2022-10-13T12:10:51.547Z,14.90
2022-10-13T12:13:23.694Z,13.95
2022-10-13T12:15:57.811Z,15.35
2022-10-13T12:18:27.016Z,15.23
2022-10-13T12:20:54.773Z,14.18
2022-10-13T12:23:21.702Z,12.80
2022-10-13T12:25:51.003Z,13.48
2022-10-13T12:28:19.347Z,14.52
2022-10-13T12:30:53.618Z,15.13
2022-10-13T12:33:27.702Z,14.07
2022-10-13T12:35:54.675Z,14.60
2022-10-13T12:38:22.871Z,14.65
2022-10-13T12:40:51.349Z,14.85
2022-10-13T12:43:21.988Z,16.35
2022-10-13T12:45:49.315Z,15.25
2022-10-13T12:48:31.833Z,13.63
2022-10-13T12:51:16.382Z,14.52
2022-10-13T12:53:43.126Z,14.02
2022-10-13T12:56:22.362Z,12.57
2022-10-13T12:58:49.146Z,13.05
2022-10-13T13:01:27.566Z,14.02
2022-10-13T13:03:57.956Z,15.32
2022-10-13T13:06:30.903Z,14.38
2022-10-13T13:09:19.934Z,14.85
2022-10-13T13:11:47.877Z,17.30
2022-10-13T13:14:35.934Z,15.32
2022-10-13T13:17:11.746Z,14.55
2022-10-13T13:19:40.671Z,15.05
2022-10-13T13:22:08.782Z,14.32
2022-10-13T13:24:40.325Z,11.13
2022-10-13T13:27:17.351Z,13.25
2022-10-13T13:29:44.237Z,12.55
2022-10-13T13:32:12.883Z,13.68
2022-10-13T13:34:41.021Z,12.90
2022-10-13T13:37:14.030Z,12.98
2022-10-13T13:39:41.343Z,12.60
2022-10-13T13:42:13.672Z,13.35
2022-10-13T13:44:41.124Z,12.93
2022-10-13T13:47:16.538Z,12.43
2022-10-13T13:49:45.409Z,13.23
2022-10-13T13:52:12.219Z,13.98
2022-10-13T13:54:39.370Z,12.80
2022-10-13T13:57:06.744Z,12.50
2022-10-13T13:59:33.473Z,15.20
2022-10-13T14:02:00.308Z,14.30
2022-10-13T14:04:27.806Z,13.25
2022-10-13T14:06:55.976Z,12.52
2022-10-13T14:09:22.790Z,14.02
2022-10-13T14:11:50.194Z,14.88
2022-10-13T14:14:16.907Z,13.85
2022-10-13T14:16:43.608Z,13.73
2022-10-13T14:19:10.954Z,11.77
2022-10-13T14:21:37.683Z,13.80
2022-10-13T14:24:06.596Z,10.82
2022-10-13T14:26:33.952Z,13.13
2022-10-13T14:29:00.721Z,12.45
2022-10-13T14:31:27.513Z,12.40
2022-10-13T14:33:54.875Z,12.30
2022-10-13T14:36:21.751Z,12.90
2022-10-13T14:38:48.472Z,14.77
2022-10-13T14:41:18.113Z,12.85
2022-10-13T14:43:44.834Z,12.27
2022-10-13T14:46:12.520Z,12.63
2022-10-13T14:48:39.827Z,12.75
2022-10-13T14:51:07.198Z,14.15
2022-10-13T14:53:34.898Z,12.45
2022-10-13T14:56:02.740Z,11.80
2022-10-13T14:58:30.828Z,13.05
2022-10-13T15:00:57.534Z,14.30
2022-10-13T15:03:24.966Z,14.20
2022-10-13T15:05:51.686Z,12.75
2022-10-13T15:08:18.433Z,14.68
2022-10-13T15:10:45.754Z,14.18
2022-10-13T15:13:12.476Z,13.88
2022-10-13T15:15:47.208Z,14.48
2022-10-13T15:18:14.519Z,15.98
2022-10-13T15:20:45.490Z,14.23
2022-10-13T15:23:12.249Z,12.13
2022-10-13T15:25:39.631Z,13.23
2022-10-13T15:28:06.672Z,16.17
2022-10-13T15:30:33.545Z,17.15
2022-10-13T15:33:02.256Z,18.17
2022-10-13T15:35:29.759Z,18.45
2022-10-13T15:37:56.481Z,17.15
2022-10-13T15:40:23.947Z,18.27
2022-10-13T15:42:50.660Z,15.48
2022-10-13T15:45:17.489Z,18.08
2022-10-13T15:47:44.837Z,16.35
2022-10-13T15:50:13.058Z,15.10
2022-10-13T15:52:40.340Z,18.30
2022-10-13T15:55:08.478Z,15.00
2022-10-13T15:57:35.216Z,15.98
2022-10-13T16:00:02.067Z,15.85
2022-10-13T16:02:29.361Z,14.48
2022-10-13T16:04:56.087Z,16.15
2022-10-13T16:07:24.303Z,17.33
2022-10-13T16:09:51.619Z,16.10
2022-10-13T16:12:18.679Z,16.98
2022-10-13T16:14:46.248Z,15.93
2022-10-13T16:17:13.919Z,17.48
2022-10-13T16:19:40.624Z,16.65
2022-10-13T16:22:07.549Z,19.48
2022-10-13T16:24:36.713Z,19.33
2022-10-13T16:27:03.490Z,21.02
2022-10-13T16:29:30.286Z,20.98
2022-10-13T16:31:57.621Z,19.48
2022-10-13T16:34:24.599Z,15.93
2022-10-13T16:36:51.335Z,18.48
2022-10-13T16:39:18.774Z,16.92
2022-10-13T16:41:46.885Z,18.42
2022-10-13T16:44:13.834Z,21.70
2022-10-13T16:46:41.183Z,20.58
2022-10-13T16:49:07.964Z,18.10
2022-10-13T16:51:34.691Z,22.15
2022-10-13T16:54:04.491Z,21.48
2022-10-13T16:56:31.864Z,23.00
2022-10-13T16:59:01.011Z,24.63
2022-10-13T17:01:29.856Z,20.23
2022-10-13T17:03:57.231Z,20.00
2022-10-13T17:06:25.509Z,18.95
2022-10-13T17:08:52.838Z,18.63
2022-10-13T17:11:22.020Z,17.20
2022-10-13T17:13:49.195Z,18.83
2022-10-13T17:16:18.750Z,17.98
2022-10-13T17:21:14.292Z,17.08
2022-10-13T17:23:46.010Z,18.27
2022-10-13T17:26:17.088Z,16.27
2022-10-13T17:28:44.725Z,19.08
2022-10-13T17:31:13.562Z,16.65
2022-10-13T17:33:43.333Z,18.48
2022-10-13T17:36:13.590Z,20.33
2022-10-13T17:38:40.465Z,21.90
2022-10-13T17:41:08.719Z,19.00
2022-10-13T17:43:37.419Z,15.38
2022-10-13T17:46:34.498Z,21.23
2022-10-13T17:48:57.888Z,19.20
2022-10-13T17:51:24.853Z,19.83
2022-10-13T17:53:52.652Z,17.48
2022-10-13T17:56:21.958Z,17.83
2022-10-13T17:58:49.350Z,21.25
2022-10-13T18:01:18.080Z,20.75
2022-10-13T18:03:46.182Z,19.52
2022-10-13T18:06:15.016Z,18.27
2022-10-13T18:08:41.958Z,22.35
2022-10-13T18:11:11.459Z,21.55
2022-10-13T18:16:06.973Z,16.85
2022-10-13T18:18:34.623Z,21.55
2022-10-13T18:21:02.237Z,18.77
2022-10-13T18:23:31.770Z,19.73
2022-10-13T18:26:03.718Z,22.40
2022-10-13T18:28:30.646Z,21.05
2022-10-13T18:31:02.884Z,19.27
2022-10-13T18:33:30.384Z,20.20
2022-10-13T18:35:58.384Z,18.08
2022-10-13T18:38:25.778Z,17.10
2022-10-13T18:40:59.011Z,20.85
2022-10-13T18:43:25.716Z,22.27
2022-10-13T18:45:53.014Z,16.85
2022-10-13T18:48:19.708Z,19.58
2022-10-13T18:50:46.400Z,20.88
2022-10-13T18:53:13.713Z,19.30
2022-10-13T18:55:40.446Z,19.25
2022-10-13T18:58:08.546Z,16.80
2022-10-13T19:00:35.962Z,12.95
2022-10-13T19:03:02.946Z,13.07
2022-10-13T19:05:29.778Z,16.10
2022-10-13T19:07:57.203Z,16.13
2022-10-13T19:10:23.926Z,15.00
2022-10-13T19:12:50.610Z,16.65
2022-10-13T19:15:21.945Z,15.38
2022-10-13T19:17:48.666Z,16.67
2022-10-13T19:20:15.458Z,11.18
2022-10-13T19:22:42.800Z,15.23
2022-10-13T19:25:09.730Z,15.80
2022-10-13T19:27:36.436Z,15.95
2022-10-13T19:30:04.418Z,15.68
2022-10-13T19:32:32.574Z,12.35
2022-10-13T19:34:59.290Z,12.73
2022-10-13T19:37:26.593Z,15.10
2022-10-13T19:39:53.332Z,14.57
2022-10-13T19:42:20.062Z,14.20
2022-10-13T19:44:47.380Z,16.98
2022-10-13T19:47:14.131Z,12.70
2022-10-13T19:49:42.172Z,14.35
2022-10-13T19:52:09.483Z,14.60
2022-10-13T19:54:36.197Z,12.90
2022-10-13T19:57:03.168Z,14.32
2022-10-13T19:59:30.470Z,11.55
2022-10-13T20:01:57.202Z,11.98
2022-10-13T20:04:24.252Z,12.82
2022-10-13T20:06:52.917Z,10.10
2022-10-13T20:09:20.269Z,12.57
2022-10-13T20:11:49.785Z,12.85
2022-10-13T20:14:18.026Z,13.98
2022-10-13T20:16:45.298Z,16.17
2022-10-13T20:19:13.126Z,16.15
2022-10-13T20:21:40.601Z,17.60
2022-10-13T20:24:08.717Z,15.43
2022-10-13T20:26:35.411Z,15.67
2022-10-13T20:29:03.150Z,18.67
2022-10-13T20:31:29.968Z,18.98
2022-10-13T20:33:58.294Z,17.25
2022-10-13T20:38:53.071Z,16.58
2022-10-13T20:41:23.521Z,18.95
2022-10-13T20:43:52.547Z,19.65
2022-10-13T20:46:20.363Z,19.50
2022-10-13T20:51:35.715Z,17.38
2022-10-13T20:54:02.477Z,20.27
2022-10-13T20:56:30.544Z,17.85
2022-10-13T20:59:01.983Z,19.17
2022-10-13T21:01:28.808Z,22.80
2022-10-13T21:03:55.800Z,12.15
2022-10-13T21:06:24.691Z,18.40
2022-10-13T21:08:52.306Z,21.20
2022-10-13T21:11:20.575Z,21.40
2022-10-13T21:13:49.752Z,21.15
2022-10-13T21:16:18.491Z,19.02
2022-10-13T21:18:46.377Z,17.98
2022-10-13T21:21:15.023Z,19.88
2022-10-13T21:23:42.006Z,16.48
2022-10-13T21:26:09.505Z,17.15
2022-10-13T21:28:38.362Z,19.53
2022-10-13T21:31:08.116Z,17.38
2022-10-13T21:33:35.867Z,18.05
2022-10-13T21:36:06.181Z,20.67
2022-10-13T21:38:32.913Z,18.63
2022-10-13T21:40:59.618Z,21.50
2022-10-13T21:43:26.913Z,21.23
2022-10-13T21:45:53.698Z,20.65
2022-10-13T21:48:21.730Z,19.83
2022-10-13T21:50:49.055Z,19.88
2022-10-13T21:53:15.758Z,21.77
2022-10-13T21:55:42.455Z,11.15
2022-10-13T21:58:09.772Z,20.38
2022-10-13T22:00:36.491Z,18.52
2022-10-13T22:03:03.303Z,18.42
2022-10-13T22:05:31.954Z,19.88
2022-10-13T22:07:58.638Z,20.43
2022-10-13T22:10:25.362Z,16.38
2022-10-13T22:12:52.652Z,17.60
2022-10-13T22:15:19.371Z,17.90
2022-10-13T22:17:46.069Z,19.25
2022-10-13T22:20:13.367Z,18.85
2022-10-13T22:22:41.439Z,17.88
2022-10-13T22:25:08.945Z,19.33
2022-10-13T22:27:36.258Z,21.10
2022-10-13T22:30:03.179Z,17.60
2022-10-13T22:32:29.902Z,19.05
2022-10-13T22:34:57.186Z,17.98
2022-10-13T22:37:24.117Z,17.52
2022-10-13T22:39:52.260Z,18.33
2022-10-13T22:42:19.594Z,18.90
2022-10-13T22:44:46.293Z,18.45
2022-10-13T22:47:13.011Z,14.48
2022-10-13T22:49:40.313Z,16.40
2022-10-13T22:52:07.046Z,16.10
2022-10-13T22:54:33.814Z,14.85
2022-10-13T22:57:02.494Z,11.65
2022-10-13T22:59:29.224Z,15.37
2022-10-13T23:01:55.915Z,15.55
2022-10-13T23:04:23.215Z,12.25
2022-10-13T23:06:49.975Z,11.30
2022-10-13T23:09:16.706Z,15.48
2022-10-13T23:11:44.034Z,15.30
2022-10-13T23:14:12.113Z,16.30
2022-10-13T23:16:38.889Z,15.00
2022-10-13T23:19:06.211Z,14.02
2022-10-13T23:21:32.966Z,13.35
2022-10-13T23:24:01.354Z,14.20
2022-10-13T23:28:56.691Z,12.05
2022-10-13T23:31:25.961Z,9.45
2022-10-13T23:33:53.764Z,11.73
2022-10-13T23:36:22.295Z,12.60
2022-10-13T23:38:53.247Z,12.43
2022-10-13T23:41:20.563Z,12.60
2022-10-13T23:43:47.327Z,13.23
2022-10-13T23:46:14.058Z,14.43
2022-10-13T23:48:42.706Z,12.65
2022-10-13T23:51:11.757Z,15.57
2022-10-13T23:56:07.490Z,12.32
2022-10-13T23:58:36.375Z,13.70
